createdAt,value
2024-04-15T00:01:37.174Z,3.20
2024-04-15T00:04:04.578Z,3.00
2024-04-15T00:06:31.796Z,2.80
2024-04-15T00:08:58.742Z,2.70
2024-04-15T00:11:25.967Z,2.60
2024-04-15T00:13:52.952Z,3.20
2024-04-15T00:16:20.179Z,3.20
2024-04-15T00:18:47.364Z,2.80
2024-04-15T00:21:14.403Z,3.20
2024-04-15T00:23:41.452Z,3.10
2024-04-15T00:26:10.555Z,3.00
2024-04-15T00:28:37.681Z,2.70
2024-04-15T00:31:04.672Z,3.00
2024-04-15T00:33:31.760Z,2.70
2024-04-15T00:35:58.885Z,3.00
2024-04-15T00:38:25.778Z,2.90
2024-04-15T00:40:52.752Z,2.70
2024-04-15T00:43:19.750Z,2.90
2024-04-15T00:45:46.840Z,2.90
2024-04-15T00:48:18.056Z,2.80
2024-04-15T00:50:46.367Z,3.00
2024-04-15T00:53:15.327Z,3.00
2024-04-15T00:55:42.308Z,3.00
2024-04-15T00:58:09.726Z,3.10
2024-04-15T01:00:37.013Z,2.60
2024-04-15T01:03:04.544Z,2.80
2024-04-15T01:05:32.006Z,3.20
2024-04-15T01:07:58.932Z,3.00
2024-04-15T01:10:26.076Z,2.60
2024-04-15T01:12:53.370Z,3.20
2024-04-15T01:15:20.583Z,2.90
2024-04-15T01:17:47.695Z,2.90
2024-04-15T01:20:14.989Z,3.20
2024-04-15T01:22:45.821Z,3.00
2024-04-15T01:25:12.795Z,3.00
2024-04-15T01:27:40.175Z,2.70
2024-04-15T01:30:09.531Z,3.20
2024-04-15T01:32:36.416Z,2.80
2024-04-15T01:35:03.282Z,2.90
2024-04-15T01:37:30.577Z,2.80
2024-04-15T01:39:57.590Z,2.60
2024-04-15T01:42:24.574Z,3.10
2024-04-15T01:44:51.608Z,3.10
2024-04-15T01:47:18.748Z,2.60
2024-04-15T01:49:46.005Z,3.10
2024-04-15T01:52:13.073Z,2.60
2024-04-15T01:54:40.104Z,3.40
2024-04-15T01:57:07.050Z,2.80
2024-04-15T01:59:34.088Z,3.50
2024-04-15T02:02:01.162Z,3.40
2024-04-15T02:04:28.373Z,2.70
2024-04-15T02:06:55.462Z,3.20
2024-04-15T02:09:22.785Z,2.70
2024-04-15T02:11:49.832Z,2.80
2024-04-15T02:14:16.982Z,3.00
2024-04-15T02:16:43.828Z,2.60
2024-04-15T02:19:10.814Z,3.00
2024-04-15T02:21:38.042Z,3.50
2024-04-15T02:24:05.575Z,2.70
2024-04-15T02:26:32.678Z,3.00
2024-04-15T02:28:59.574Z,2.50
2024-04-15T02:31:26.522Z,2.90
2024-04-15T02:33:53.492Z,2.90
2024-04-15T02:36:20.505Z,2.60
2024-04-15T02:38:49.457Z,2.70
2024-04-15T02:41:16.611Z,2.80
2024-04-15T02:43:43.492Z,2.80
2024-04-15T02:46:10.518Z,2.60
2024-04-15T02:48:38.324Z,2.90
2024-04-15T02:51:05.660Z,2.80
2024-04-15T02:53:33.427Z,3.00
2024-04-15T02:56:01.187Z,2.70
2024-04-15T02:58:28.025Z,3.10
2024-04-15T03:00:57.209Z,3.00
2024-04-15T03:03:24.574Z,3.40
2024-04-15T03:05:51.425Z,2.80
2024-04-15T03:08:18.572Z,2.80
2024-04-15T03:10:45.518Z,2.60
2024-04-15T03:13:12.564Z,2.50
2024-04-15T03:15:39.818Z,3.10
2024-04-15T03:18:06.858Z,3.20
2024-04-15T03:20:33.802Z,2.80
2024-04-15T03:23:00.751Z,2.80
2024-04-15T03:25:27.705Z,2.60
2024-04-15T03:27:54.870Z,2.50
2024-04-15T03:30:21.789Z,2.70
2024-04-15T03:32:48.804Z,3.20
2024-04-15T03:35:16.148Z,2.80
2024-04-15T03:37:43.409Z,3.40
2024-04-15T03:40:11.566Z,3.10
2024-04-15T03:42:38.907Z,2.80
2024-04-15T03:45:07.093Z,2.50
2024-04-15T03:47:34.425Z,2.50
2024-04-15T03:50:01.628Z,2.70
2024-04-15T03:52:29.103Z,3.10
2024-04-15T03:54:55.965Z,2.40
2024-04-15T03:57:22.913Z,2.90
2024-04-15T03:59:49.942Z,2.90
2024-04-15T04:02:16.983Z,2.70
2024-04-15T04:04:44.399Z,2.70
2024-04-15T04:07:11.538Z,2.80
2024-04-15T04:09:39.463Z,3.10
2024-04-15T04:12:06.812Z,3.30
2024-04-15T04:14:33.695Z,2.60
2024-04-15T04:17:02.037Z,2.80
2024-04-15T04:19:33.959Z,3.10
2024-04-15T04:22:01.263Z,2.70
2024-04-15T04:24:30.247Z,2.50
2024-04-15T04:26:57.078Z,2.70
2024-04-15T04:29:24.232Z,2.50
2024-04-15T04:31:51.182Z,2.90
2024-04-15T04:34:18.226Z,2.60
2024-04-15T04:36:45.286Z,2.40
2024-04-15T04:39:12.187Z,2.70
2024-04-15T04:41:39.258Z,7.00
2024-04-15T04:44:06.224Z,8.00
2024-04-15T04:46:33.112Z,14.40
2024-04-15T04:49:00.253Z,17.00
2024-04-15T04:51:27.656Z,20.20
2024-04-15T04:53:54.695Z,21.40
2024-04-15T04:56:22.107Z,16.90
2024-04-15T04:58:49.639Z,12.00
2024-04-15T05:01:17.978Z,8.70
2024-04-15T05:03:51.311Z,5.40
2024-04-15T05:06:18.961Z,4.40
2024-04-15T05:08:46.510Z,3.20
2024-04-15T05:11:13.710Z,2.10
2024-04-15T05:13:40.698Z,2.30
2024-04-15T05:16:17.713Z,1.90
2024-04-15T05:18:46.301Z,2.20
2024-04-15T05:21:16.945Z,2.20
2024-04-15T05:23:44.044Z,1.90
2024-04-15T05:26:11.102Z,1.80
2024-04-15T05:28:38.147Z,2.30
2024-04-15T05:31:05.420Z,1.90
2024-04-15T05:33:33.694Z,2.30
2024-04-15T05:36:00.829Z,2.10
2024-04-15T05:38:30.242Z,2.40
2024-04-15T05:40:57.166Z,2.20
2024-04-15T05:43:26.660Z,2.10
2024-04-15T05:45:54.017Z,2.00
2024-04-15T05:48:21.401Z,1.90
2024-04-15T05:50:48.550Z,1.90
2024-04-15T05:53:15.570Z,2.10
2024-04-15T05:55:42.738Z,7.20
2024-04-15T05:58:10.042Z,14.10
2024-04-15T06:00:37.133Z,19.40
2024-04-15T06:03:04.726Z,19.50
2024-04-15T06:05:33.464Z,17.90
2024-04-15T06:08:00.627Z,18.20
2024-04-15T06:10:28.139Z,17.70
2024-04-15T06:12:55.266Z,17.70
2024-04-15T06:15:22.473Z,17.90
2024-04-15T06:17:49.534Z,16.70
2024-04-15T06:20:18.420Z,16.00
2024-04-15T06:22:47.509Z,12.40
2024-04-15T06:25:15.294Z,12.70
2024-04-15T06:27:42.332Z,10.90
2024-04-15T06:30:09.912Z,10.60
2024-04-15T06:32:41.491Z,10.30
2024-04-15T06:35:10.680Z,10.10
2024-04-15T06:37:39.329Z,6.00
2024-04-15T06:40:07.115Z,6.40
2024-04-15T06:42:35.356Z,3.70
2024-04-15T06:45:03.323Z,3.40
2024-04-15T06:47:30.325Z,4.20
2024-04-15T06:49:57.324Z,3.90
2024-04-15T06:52:27.158Z,3.20
2024-04-15T06:54:54.710Z,2.70
2024-04-15T06:57:21.742Z,2.70
2024-04-15T06:59:48.902Z,3.60
2024-04-15T07:02:20.599Z,3.20
2024-04-15T07:04:52.055Z,3.00
2024-04-15T07:09:46.938Z,2.70
2024-04-15T07:12:14.164Z,2.50
2024-04-15T07:14:41.305Z,2.20
2024-04-15T07:17:08.558Z,2.80
2024-04-15T07:19:35.698Z,2.20
2024-04-15T07:22:02.907Z,2.70
2024-04-15T07:24:30.409Z,2.50
2024-04-15T07:26:57.558Z,2.20
2024-04-15T07:29:25.218Z,2.30
2024-04-15T07:31:52.331Z,2.70
2024-04-15T07:34:21.191Z,2.40
2024-04-15T07:36:48.729Z,2.30
2024-04-15T07:39:15.650Z,3.00
2024-04-15T07:41:42.615Z,2.50
2024-04-15T07:44:09.652Z,2.10
2024-04-15T07:46:36.858Z,2.00
2024-04-15T07:49:04.577Z,2.50
2024-04-15T07:51:32.233Z,2.30
2024-04-15T07:53:59.286Z,2.60
2024-04-15T07:56:26.429Z,2.50
2024-04-15T07:58:53.669Z,2.10
2024-04-15T08:01:20.728Z,1.90
2024-04-15T08:03:48.181Z,2.50
2024-04-15T08:06:15.443Z,2.20
2024-04-15T08:08:42.463Z,2.10
2024-04-15T08:11:09.911Z,2.10
2024-04-15T08:13:36.996Z,2.20
2024-04-15T08:16:04.558Z,2.10
2024-04-15T08:18:31.698Z,2.00
2024-04-15T08:20:58.649Z,2.00
2024-04-15T08:23:25.780Z,2.40
2024-04-15T08:25:53.862Z,2.10
2024-04-15T08:28:21.795Z,2.80
2024-04-15T08:30:48.999Z,2.40
2024-04-15T08:33:16.187Z,2.60
2024-04-15T08:35:43.585Z,2.50
2024-04-15T08:38:10.522Z,2.70
2024-04-15T08:40:37.688Z,3.00
2024-04-15T08:43:04.737Z,2.80
2024-04-15T08:45:32.176Z,2.50
2024-04-15T08:47:59.524Z,3.00
2024-04-15T08:50:27.349Z,2.60
2024-04-15T08:53:14.556Z,2.80
2024-04-15T08:55:41.674Z,3.10
2024-04-15T08:58:10.491Z,2.30
2024-04-15T09:00:37.492Z,2.90
2024-04-15T09:03:05.042Z,3.40
2024-04-15T09:05:32.854Z,2.80
2024-04-15T09:08:00.070Z,2.60
2024-04-15T09:10:27.354Z,2.60
2024-04-15T09:12:57.219Z,2.60
2024-04-15T09:15:26.473Z,2.60
2024-04-15T09:17:57.069Z,2.80
2024-04-15T09:20:34.894Z,2.40
2024-04-15T09:23:11.874Z,2.80
2024-04-15T09:25:39.402Z,2.60
2024-04-15T09:28:06.505Z,2.50
2024-04-15T09:30:33.599Z,2.60
2024-04-15T09:33:01.140Z,2.50
2024-04-15T09:35:29.122Z,2.60
2024-04-15T09:37:56.382Z,2.50
2024-04-15T09:40:26.139Z,2.50
2024-04-15T09:42:57.035Z,2.50
2024-04-15T09:45:24.376Z,2.70
2024-04-15T09:47:51.803Z,2.60
2024-04-15T09:50:21.066Z,2.40
2024-04-15T09:52:53.714Z,2.60
2024-04-15T09:55:25.672Z,2.80
2024-04-15T09:57:52.965Z,2.90
2024-04-15T10:00:20.076Z,2.20
2024-04-15T10:02:54.216Z,2.90
2024-04-15T10:05:23.594Z,2.60
2024-04-15T10:07:54.733Z,2.80
2024-04-15T10:12:52.876Z,3.00
2024-04-15T10:15:21.001Z,2.60
2024-04-15T10:17:58.431Z,3.10
2024-04-15T10:20:34.966Z,2.80
2024-04-15T10:23:25.685Z,2.70
2024-04-15T10:25:54.268Z,2.80
2024-04-15T10:28:21.544Z,2.90
2024-04-15T10:30:49.154Z,2.90
2024-04-15T10:33:17.420Z,2.90
2024-04-15T10:35:50.616Z,2.80
2024-04-15T10:38:17.767Z,2.90
2024-04-15T10:40:45.959Z,3.10
2024-04-15T10:43:14.317Z,2.90
2024-04-15T10:45:41.572Z,2.90
2024-04-15T10:48:10.720Z,2.70
2024-04-15T10:50:37.820Z,3.20
2024-04-15T10:53:04.987Z,2.90
2024-04-15T10:55:32.269Z,3.20
2024-04-15T10:57:59.240Z,2.90
2024-04-15T11:00:26.217Z,2.50
2024-04-15T11:02:54.462Z,3.10
2024-04-15T11:05:23.224Z,3.00
2024-04-15T11:07:57.393Z,2.60
2024-04-15T11:10:24.368Z,3.00
2024-04-15T11:12:52.257Z,3.00
2024-04-15T11:15:19.376Z,3.00
2024-04-15T11:17:47.031Z,3.10
2024-04-15T11:20:14.095Z,2.70
2024-04-15T11:22:41.506Z,2.80
2024-04-15T11:25:10.471Z,2.70
2024-04-15T11:27:38.600Z,2.80
2024-04-15T11:30:07.869Z,2.80
2024-04-15T11:32:35.924Z,2.50
2024-04-15T11:35:05.666Z,3.50
2024-04-15T11:37:32.930Z,2.60
2024-04-15T11:40:00.959Z,2.80
2024-04-15T11:42:28.413Z,2.80
2024-04-15T11:44:56.418Z,4.20
2024-04-15T11:47:23.580Z,3.20
2024-04-15T11:49:50.534Z,2.70
2024-04-15T11:52:18.791Z,3.10
2024-04-15T11:54:45.955Z,2.60
2024-04-15T11:57:12.900Z,2.90
2024-04-15T11:59:40.473Z,2.90
2024-04-15T12:02:07.407Z,3.20
2024-04-15T12:04:34.410Z,2.40
2024-04-15T12:07:01.362Z,3.20
2024-04-15T12:09:30.168Z,2.70
2024-04-15T12:11:57.844Z,2.50
2024-04-15T12:14:24.646Z,2.80
2024-04-15T12:16:51.585Z,2.90
2024-04-15T12:19:18.631Z,3.10
2024-04-15T12:21:45.724Z,3.00
2024-04-15T12:24:12.552Z,2.80
2024-04-15T12:26:39.356Z,2.80
2024-04-15T12:29:06.184Z,2.40
2024-04-15T12:31:33.112Z,2.90
2024-04-15T12:34:00.118Z,2.90
2024-04-15T12:36:27.204Z,3.00
2024-04-15T12:38:54.079Z,3.00
2024-04-15T12:41:21.231Z,3.20
2024-04-15T12:43:49.303Z,3.00
2024-04-15T12:46:16.292Z,3.00
2024-04-15T12:48:43.611Z,2.80
2024-04-15T12:51:10.601Z,2.80
2024-04-15T12:53:37.443Z,2.90
2024-04-15T12:56:05.649Z,2.80
2024-04-15T12:58:32.921Z,2.60
2024-04-15T13:01:00.649Z,3.10
2024-04-15T13:03:28.471Z,3.00
2024-04-15T13:05:55.419Z,2.90
2024-04-15T13:08:22.233Z,3.00
2024-04-15T13:10:49.209Z,2.80
2024-04-15T13:13:16.094Z,3.20
2024-04-15T13:15:43.013Z,3.20
2024-04-15T13:18:09.901Z,3.50
2024-04-15T13:20:36.827Z,2.80
2024-04-15T13:23:04.078Z,3.30
2024-04-15T13:25:31.108Z,2.70
2024-04-15T13:27:58.365Z,2.90
2024-04-15T13:30:25.170Z,2.90
2024-04-15T13:32:53.106Z,2.70
2024-04-15T13:35:20.438Z,3.20
2024-04-15T13:37:47.888Z,3.00
2024-04-15T13:40:14.820Z,2.90
2024-04-15T13:42:41.718Z,3.10
2024-04-15T13:45:09.247Z,2.90
2024-04-15T13:47:36.349Z,3.00
2024-04-15T13:50:04.052Z,3.00
2024-04-15T13:52:30.986Z,2.50
2024-04-15T13:54:58.965Z,2.90
2024-04-15T13:57:25.841Z,2.60
2024-04-15T13:59:52.858Z,2.80
2024-04-15T14:02:21.717Z,2.70
2024-04-15T14:04:50.414Z,2.80
2024-04-15T14:07:18.049Z,2.70
2024-04-15T14:09:44.939Z,2.80
2024-04-15T14:12:12.199Z,3.10
2024-04-15T14:14:39.060Z,3.00
2024-04-15T14:17:10.167Z,2.90
2024-04-15T14:19:37.133Z,2.40
2024-04-15T14:22:04.938Z,2.90
2024-04-15T14:24:31.966Z,3.40
2024-04-15T14:26:58.749Z,2.80
2024-04-15T14:29:26.578Z,2.50
2024-04-15T14:31:53.954Z,2.70
2024-04-15T14:34:20.987Z,2.60
2024-04-15T14:36:47.916Z,2.90
2024-04-15T14:39:14.691Z,2.80
2024-04-15T14:41:42.551Z,3.50
2024-04-15T14:44:10.639Z,2.90
2024-04-15T14:46:37.782Z,3.10
2024-04-15T14:49:05.833Z,3.80
2024-04-15T14:51:32.803Z,3.30
2024-04-15T14:53:59.645Z,3.40
2024-04-15T14:56:26.618Z,3.00
2024-04-15T14:58:54.276Z,2.80
2024-04-15T15:01:21.484Z,2.90
2024-04-15T15:03:48.473Z,3.70
2024-04-15T15:06:15.406Z,3.00
2024-04-15T15:08:43.578Z,3.20
2024-04-15T15:11:12.347Z,3.20
2024-04-15T15:13:39.642Z,2.90
2024-04-15T15:16:06.801Z,3.30
2024-04-15T15:18:33.733Z,3.10
2024-04-15T15:21:07.929Z,3.40
2024-04-15T15:23:43.346Z,3.40
2024-04-15T15:26:10.242Z,3.60
2024-04-15T15:28:37.177Z,3.10
2024-04-15T15:31:04.206Z,3.20
2024-04-15T15:33:31.068Z,3.20
2024-04-15T15:35:57.961Z,3.50
2024-04-15T15:38:24.804Z,3.60
2024-04-15T15:40:51.640Z,3.90
2024-04-15T15:43:20.876Z,3.90
2024-04-15T15:45:49.913Z,3.60
2024-04-15T15:48:18.585Z,3.60
2024-04-15T15:50:45.580Z,4.40
2024-04-15T15:53:12.729Z,4.40
2024-04-15T15:55:39.591Z,3.90
2024-04-15T15:58:06.638Z,4.00
2024-04-15T16:00:33.651Z,3.70
2024-04-15T16:03:01.342Z,4.10
2024-04-15T16:05:29.576Z,4.00
2024-04-15T16:07:58.081Z,4.20
2024-04-15T16:10:24.872Z,3.80
2024-04-15T16:12:51.865Z,4.80
2024-04-15T16:15:18.845Z,4.30
2024-04-15T16:17:45.804Z,4.40
2024-04-15T16:20:12.736Z,4.80
2024-04-15T16:22:39.543Z,5.00
2024-04-15T16:25:06.563Z,4.10
2024-04-15T16:27:35.928Z,4.40
2024-04-15T16:30:02.976Z,4.40
2024-04-15T16:32:31.388Z,4.20
2024-04-15T16:34:58.450Z,4.00
2024-04-15T16:37:26.125Z,4.00
2024-04-15T16:39:53.302Z,4.70
2024-04-15T16:42:20.231Z,4.40
2024-04-15T16:44:47.293Z,4.50
2024-04-15T16:47:14.294Z,4.00
2024-04-15T16:49:41.168Z,4.90
2024-04-15T16:52:08.324Z,4.60
2024-04-15T16:54:35.363Z,4.40
2024-04-15T16:57:02.382Z,4.10
2024-04-15T16:59:30.298Z,4.50
2024-04-15T17:01:57.342Z,4.70
2024-04-15T17:04:24.335Z,4.60
2024-04-15T17:06:52.329Z,4.70
2024-04-15T17:09:19.297Z,4.20
2024-04-15T17:11:46.167Z,4.40
2024-04-15T17:14:13.501Z,4.70
2024-04-15T17:16:40.620Z,3.70
2024-04-15T17:19:08.132Z,4.50
2024-04-15T17:21:36.155Z,3.90
2024-04-15T17:24:03.324Z,4.50
2024-04-15T17:26:30.497Z,4.60
2024-04-15T17:28:57.383Z,4.40
2024-04-15T17:31:24.615Z,4.00
2024-04-15T17:33:51.659Z,4.00
2024-04-15T17:36:18.582Z,4.50
2024-04-15T17:38:47.183Z,5.00
2024-04-15T17:41:14.162Z,4.20
2024-04-15T17:43:41.246Z,4.70
2024-04-15T17:46:08.523Z,4.70
2024-04-15T17:48:38.252Z,4.70
2024-04-15T17:51:08.487Z,4.80
2024-04-15T17:53:35.371Z,3.70
2024-04-15T17:56:02.469Z,3.80
2024-04-15T17:58:29.807Z,4.60
2024-04-15T18:00:56.760Z,3.90
2024-04-15T18:03:23.870Z,3.90
2024-04-15T18:05:51.600Z,4.40
2024-04-15T18:08:18.794Z,4.60
2024-04-15T18:10:45.889Z,4.50
2024-04-15T18:13:12.945Z,5.20
2024-04-15T18:15:40.218Z,4.70
2024-04-15T18:18:07.515Z,4.70
2024-04-15T18:20:34.687Z,5.30
2024-04-15T18:23:01.948Z,4.30
2024-04-15T18:25:29.975Z,4.80
2024-04-15T18:27:57.265Z,4.40
2024-04-15T18:30:24.596Z,4.70
2024-04-15T18:32:52.061Z,4.60
2024-04-15T18:35:20.219Z,5.40
2024-04-15T18:37:48.126Z,5.00
2024-04-15T18:40:15.514Z,4.60
2024-04-15T18:42:42.504Z,5.20
2024-04-15T18:45:09.450Z,5.10
2024-04-15T18:47:36.529Z,5.30
2024-04-15T18:50:03.527Z,5.30
2024-04-15T18:52:31.679Z,5.80
2024-04-15T18:54:59.664Z,5.40
2024-04-15T18:57:28.056Z,5.40
2024-04-15T18:59:55.974Z,6.20
2024-04-15T19:02:22.991Z,5.70
2024-04-15T19:04:50.148Z,5.60
2024-04-15T19:07:17.298Z,6.30
2024-04-15T19:09:44.408Z,6.00
2024-04-15T19:12:11.746Z,6.60
2024-04-15T19:14:51.745Z,6.30
2024-04-15T19:17:26.513Z,6.10
2024-04-15T19:19:54.039Z,6.50
2024-04-15T19:22:21.132Z,6.40
2024-04-15T19:24:48.585Z,6.20
2024-04-15T19:27:15.680Z,5.90
2024-04-15T19:29:45.455Z,6.20
2024-04-15T19:32:12.736Z,6.40
2024-04-15T19:34:39.768Z,5.20
2024-04-15T19:37:06.793Z,5.90
2024-04-15T19:39:34.748Z,5.30
2024-04-15T19:42:01.796Z,6.10
2024-04-15T19:44:29.020Z,5.60
2024-04-15T19:46:55.979Z,5.30
2024-04-15T19:49:23.051Z,5.00
2024-04-15T19:51:50.092Z,5.20
2024-04-15T19:54:17.219Z,5.90
2024-04-15T19:56:45.702Z,5.40
2024-04-15T19:59:12.722Z,4.70
2024-04-15T20:01:39.639Z,5.00
2024-04-15T20:04:06.746Z,5.10
2024-04-15T20:06:34.517Z,4.80
2024-04-15T20:09:01.930Z,4.80
2024-04-15T20:11:29.141Z,4.80
2024-04-15T20:13:56.411Z,5.00
2024-04-15T20:16:23.474Z,5.20
2024-04-15T20:19:04.109Z,5.30
2024-04-15T20:21:31.287Z,5.10
2024-04-15T20:23:58.477Z,5.20
2024-04-15T20:26:25.409Z,5.90
2024-04-15T20:28:52.222Z,5.10
2024-04-15T20:31:19.248Z,5.90
2024-04-15T20:33:46.441Z,6.20
2024-04-15T20:36:13.289Z,6.30
2024-04-15T20:38:42.654Z,5.60
2024-04-15T20:41:10.121Z,6.00
2024-04-15T20:43:37.186Z,5.30
2024-04-15T20:46:04.302Z,5.40
2024-04-15T20:48:31.259Z,5.30
2024-04-15T20:50:58.203Z,5.20
2024-04-15T20:53:25.010Z,5.30
2024-04-15T20:55:52.158Z,5.40
2024-04-15T20:58:19.098Z,5.90
2024-04-15T21:00:45.980Z,5.30
2024-04-15T21:03:12.875Z,5.30
2024-04-15T21:05:39.691Z,6.20
2024-04-15T21:08:06.981Z,5.70
2024-04-15T21:10:34.094Z,6.00
2024-04-15T21:13:01.125Z,6.00
2024-04-15T21:15:28.441Z,5.70
2024-04-15T21:17:55.434Z,7.70
2024-04-15T21:20:23.313Z,6.40
2024-04-15T21:22:50.239Z,6.60
2024-04-15T21:25:18.247Z,7.00
2024-04-15T21:27:45.062Z,6.60
2024-04-15T21:30:12.053Z,6.40
2024-04-15T21:32:39.014Z,6.30
2024-04-15T21:35:06.075Z,6.60
2024-04-15T21:37:33.030Z,6.30
2024-04-15T21:39:59.930Z,6.80
2024-04-15T21:42:26.786Z,6.80
2024-04-15T21:44:53.831Z,6.70
2024-04-15T21:47:21.751Z,7.10
2024-04-15T21:49:50.458Z,6.70
2024-04-15T21:52:18.601Z,6.60
2024-04-15T21:54:45.498Z,6.60
2024-04-15T21:57:12.298Z,7.70
2024-04-15T21:59:39.104Z,7.30
2024-04-15T22:02:05.808Z,6.40
2024-04-15T22:04:40.768Z,6.60
2024-04-15T22:07:15.467Z,6.60
2024-04-15T22:09:42.535Z,7.00
2024-04-15T22:12:09.291Z,6.20
2024-04-15T22:14:36.332Z,7.00
2024-04-15T22:17:03.072Z,7.30
2024-04-15T22:19:30.164Z,7.10
2024-04-15T22:21:57.060Z,6.70
2024-04-15T22:24:23.869Z,6.50
2024-04-15T22:26:50.562Z,6.70
2024-04-15T22:29:17.356Z,6.60
2024-04-15T22:31:44.092Z,6.90
2024-04-15T22:34:11.011Z,7.40
2024-04-15T22:36:37.909Z,6.30
2024-04-15T22:39:04.710Z,7.60
2024-04-15T22:41:31.586Z,7.70
2024-04-15T22:43:58.448Z,7.70
2024-04-15T22:46:25.231Z,6.90
2024-04-15T22:48:54.264Z,7.20
2024-04-15T22:51:21.109Z,7.30
2024-04-15T22:53:47.803Z,7.20
2024-04-15T22:56:14.649Z,6.70
2024-04-15T22:58:41.495Z,7.30
2024-04-15T23:01:08.349Z,7.30
2024-04-15T23:03:35.606Z,6.70
2024-04-15T23:06:03.350Z,6.70
2024-04-15T23:08:30.354Z,7.30
2024-04-15T23:10:57.472Z,7.30
2024-04-15T23:13:24.251Z,6.50
2024-04-15T23:15:50.987Z,6.90
2024-04-15T23:18:17.953Z,6.60
2024-04-15T23:20:44.781Z,9.10
2024-04-15T23:23:11.656Z,7.30
2024-04-15T23:25:38.431Z,8.40
2024-04-15T23:28:05.263Z,7.70
2024-04-15T23:30:32.696Z,7.60
2024-04-15T23:32:59.568Z,7.70
2024-04-15T23:35:26.352Z,6.70
2024-04-15T23:37:53.443Z,7.00
2024-04-15T23:40:20.098Z,7.40
2024-04-15T23:42:46.813Z,6.80
2024-04-15T23:45:32.191Z,7.00
2024-04-15T23:48:17.314Z,6.70
2024-04-15T23:51:03.189Z,6.30
2024-04-15T23:53:48.722Z,7.00
2024-04-15T23:56:34.395Z,7.70
2024-04-15T23:59:01.217Z,7.00
